Time;durP1;ratioP1;P1;durP2;ratioP2;P2;SDS_P1;SDS_P2;PMS_P1;PMS_P2;Temp;Humidity;BMP_temperature;BMP_pressure;BME280_temperature;BME280_humidity;BME280_pressure;Samples;Min_cycle;Max_cycle;Signal;HPM_P1;HPM_P2
2022/03/25 00:01:14;;;;;;;;;;;;;;;;;;5094668;28;19916;-29
2022/03/25 00:03:40;;;;;;;;;;;;;;;;;;5098288;28;19908;-33
2022/03/25 00:06:06;;;;;;;;;;;;;;;;;;5098369;28;19951;-32
2022/03/25 00:08:34;;;;;;;;;;;;;;;;;;5098309;28;19919;-31
2022/03/25 00:11:00;;;;;;;;;;;;;;;;;;5098540;28;20338;-31
2022/03/25 00:13:26;;;;;;;;;;;;;;;;;;5098307;28;19908;-28
2022/03/25 00:15:52;;;;;;;;;;;;;;;;;;5098491;28;20293;-28
2022/03/25 00:18:19;;;;;;;;;;;;;;;;;;5098442;28;20007;-28
2022/03/25 00:20:45;;;;;;;;;;;;;;;;;;5098186;28;19920;-35
2022/03/25 00:23:11;;;;;;;;;;;;;;;;;;5098153;28;20335;-28
2022/03/25 00:25:38;;;;;;;;;;;;;;;;;;5098080;28;20010;-29
2022/03/25 00:28:06;;;;;;;;;;;;;;;;;;5080082;28;19912;-31
2022/03/25 00:30:32;;;;;;;;;;;;;;;;;;5098267;28;19912;-29
2022/03/25 00:32:58;;;;;;;;;;;;;;;;;;5097973;28;20296;-27
2022/03/25 00:35:25;;;;;;;;;;;;;;;;;;5097887;28;19969;-28
2022/03/25 00:37:51;;;;;;;;;;;;;;;;;;5079847;28;20330;-28
2022/03/25 00:40:20;;;;;;;;;;;;;;;;;;5098208;28;19912;-30
2022/03/25 00:42:47;;;;;;;;;;;;;;;;;;5097656;28;20345;-31
2022/03/25 00:45:13;;;;;;;;;;;;;;;;;;5097961;28;19966;-27
2022/03/25 00:47:41;;;;;;;;;;;;;;;;;;5097611;28;19962;-29
2022/03/25 00:50:07;;;;;;;;;;;;;;;;;;5097818;28;20250;-27
2022/03/25 00:52:34;;;;;;;;;;;;;;;;;;5079659;28;19912;-30
2022/03/25 00:55:01;;;;;;;;;;;;;;;;;;5097426;28;19942;-29
2022/03/25 00:57:27;;;;;;;;;;;;;;;;;;5079493;28;19916;-32
2022/03/25 00:59:55;;;;;;;;;;;;;;;;;;5097348;28;19934;-30
2022/03/25 01:02:23;;;;;;;;;;;;;;;;;;5097573;28;20246;-28
2022/03/25 01:04:50;;;;;;;;;;;;;;;;;;5079433;28;20343;-31
2022/03/25 01:07:17;;;;;;;;;;;;;;;;;;5097344;28;20262;-28
2022/03/25 01:09:43;;;;;;;;;;;;;;;;;;5097240;28;19918;-31
2022/03/25 01:12:10;;;;;;;;;;;;;;;;;;5079345;28;19922;-29
2022/03/25 01:14:38;;;;;;;;;;;;;;;;;;5097114;28;19912;-25
2022/03/25 01:17:06;;;;;;;;;;;;;;;;;;5097002;28;19919;-30
2022/03/25 01:19:33;;;;;;;;;;;;;;;;;;5096851;28;19916;-31
2022/03/25 01:21:59;;;;;;;;;;;;;;;;;;5096967;28;19998;-29
2022/03/25 01:24:26;;;;;;;;;;;;;;;;;;5097180;28;19912;-29
2022/03/25 01:26:52;;;;;;;;;;;;;;;;;;5096793;28;19912;-29
2022/03/25 01:29:20;;;;;;;;;;;;;;;;;;5078964;28;19912;-32
2022/03/25 01:31:46;;;;;;;;;;;;;;;;;;5096588;28;20413;-27
2022/03/25 01:34:12;;;;;;;;;;;;;;;;;;5096774;28;19912;-29
2022/03/25 01:36:38;;;;;;;;;;;;;;;;;;5096765;28;19939;-29
2022/03/25 01:39:04;;;;;;;;;;;;;;;;;;5096499;28;19923;-32
2022/03/25 01:41:30;;;;;;;;;;;;;;;;;;5096786;28;19915;-26
2022/03/25 01:43:56;;;;;;;;;;;;;;;;;;5096545;28;19912;-26
2022/03/25 01:46:24;;;;;;;;;;;;;;;;;;5096745;28;20232;-30
2022/03/25 01:48:50;;;;;;;;;;;;;;;;;;5078544;28;19955;-26
2022/03/25 01:51:16;;;;;;;;;;;;;;;;;;5078546;28;19948;-28
2022/03/25 01:53:43;;;;;;;;;;;;;;;;;;5096371;28;19912;-26
2022/03/25 01:56:09;;;;;;;;;;;;;;;;;;5096349;28;20336;-30
2022/03/25 01:58:36;;;;;;;;;;;;;;;;;;5096199;28;19931;-31
2022/03/25 02:01:04;;;;;;;;;;;;;;;;;;5096186;28;20007;-29
2022/03/25 02:03:33;;;;;;;;;;;;;;;;;;5096230;28;20358;-30
2022/03/25 02:06:00;;;;;;;;;;;;;;;;;;5096175;28;20330;-31
2022/03/25 02:08:27;;;;;;;;;;;;;;;;;;5096161;28;19912;-33
2022/03/25 02:10:53;;;;;;;;;;;;;;;;;;5078214;28;19973;-31
2022/03/25 02:13:19;;;;;;;;;;;;;;;;;;5095950;28;19919;-31
2022/03/25 02:15:50;;;;;;;;;;;;;;;;;;5077997;28;19951;-30
2022/03/25 02:18:18;;;;;;;;;;;;;;;;;;5077904;28;20416;-29
2022/03/25 02:20:44;;;;;;;;;;;;;;;;;;5096049;28;20262;-31
2022/03/25 02:23:11;;;;;;;;;;;;;;;;;;5096136;28;19961;-28
2022/03/25 02:25:38;;;;;;;;;;;;;;;;;;5077272;28;19916;-33
2022/03/25 02:28:07;;;;;;;;;;;;;;;;;;5095898;28;19920;-32
2022/03/25 02:30:33;;;;;;;;;;;;;;;;;;5095949;28;19962;-29
2022/03/25 02:33:02;;;;;;;;;;;;;;;;;;5095447;28;19920;-26
2022/03/25 02:35:28;;;;;;;;;;;;;;;;;;5077616;28;20286;-29
2022/03/25 02:37:55;;;;;;;;;;;;;;;;;;5095430;28;20322;-29
2022/03/25 02:40:21;;;;;;;;;;;;;;;;;;5095411;28;19923;-30
2022/03/25 02:42:47;;;;;;;;;;;;;;;;;;5095509;28;19908;-31
2022/03/25 02:45:13;;;;;;;;;;;;;;;;;;5095369;28;19912;-30
2022/03/25 02:47:39;;;;;;;;;;;;;;;;;;5095452;28;19995;-32
2022/03/25 02:50:07;;;;;;;;;;;;;;;;;;5095315;28;20311;-34
2022/03/25 02:52:35;;;;;;;;;;;;;;;;;;5077425;28;19912;-32
2022/03/25 02:55:01;;;;;;;;;;;;;;;;;;5095191;28;19917;-33
2022/03/25 02:57:28;;;;;;;;;;;;;;;;;;5095393;28;20354;-27
2022/03/25 02:59:54;;;;;;;;;;;;;;;;;;5095095;28;19945;-28
2022/03/25 03:02:20;;;;;;;;;;;;;;;;;;5095342;28;19912;-29
2022/03/25 03:04:49;;;;;;;;;;;;;;;;;;5095154;28;19973;-33
2022/03/25 03:07:16;;;;;;;;;;;;;;;;;;5095015;28;19912;-30
2022/03/25 03:09:42;;;;;;;;;;;;;;;;;;5094996;28;19907;-26
2022/03/25 03:12:10;;;;;;;;;;;;;;;;;;5077243;28;20270;-31
2022/03/25 03:14:36;;;;;;;;;;;;;;;;;;5095215;28;19912;-33
2022/03/25 03:17:04;;;;;;;;;;;;;;;;;;5095143;28;19965;-29
2022/03/25 03:19:32;;;;;;;;;;;;;;;;;;5094809;28;20378;-28
2022/03/25 03:22:00;;;;;;;;;;;;;;;;;;5095120;28;20253;-26
2022/03/25 03:24:26;;;;;;;;;;;;;;;;;;5094898;28;19920;-31
2022/03/25 03:26:54;;;;;;;;;;;;;;;;;;5094708;28;19998;-29
2022/03/25 03:29:21;;;;;;;;;;;;;;;;;;5095081;28;19961;-27
2022/03/25 03:31:48;;;;;;;;;;;;;;;;;;5094879;28;19928;-26
2022/03/25 03:34:14;;;;;;;;;;;;;;;;;;5094782;28;19919;-26
2022/03/25 03:36:40;;;;;;;;;;;;;;;;;;5097004;28;19915;-31
2022/03/25 03:39:06;;;;;;;;;;;;;;;;;;5098950;28;20010;-27
2022/03/25 03:41:33;;;;;;;;;;;;;;;;;;5099112;28;20383;-29
2022/03/25 03:44:00;;;;;;;;;;;;;;;;;;5080935;28;19915;-32
2022/03/25 03:46:27;;;;;;;;;;;;;;;;;;5098750;28;19984;-27
2022/03/25 03:48:53;;;;;;;;;;;;;;;;;;5098815;28;20253;-26
2022/03/25 03:51:20;;;;;;;;;;;;;;;;;;5080916;28;19959;-35
2022/03/25 03:53:47;;;;;;;;;;;;;;;;;;5098757;28;20292;-30
2022/03/25 03:56:13;;;;;;;;;;;;;;;;;;5098994;28;19960;-28
2022/03/25 03:58:40;;;;;;;;;;;;;;;;;;5098577;28;20002;-30
2022/03/25 04:01:06;;;;;;;;;;;;;;;;;;5098795;28;19915;-25
2022/03/25 04:03:32;;;;;;;;;;;;;;;;;;5098487;28;19912;-30
2022/03/25 04:05:58;;;;;;;;;;;;;;;;;;5080569;28;19923;-26
2022/03/25 04:08:24;;;;;;;;;;;;;;;;;;5098449;28;20247;-28
2022/03/25 04:10:52;;;;;;;;;;;;;;;;;;5098610;28;19912;-31
2022/03/25 04:13:20;;;;;;;;;;;;;;;;;;5099056;28;19912;-27
2022/03/25 04:15:46;;;;;;;;;;;;;;;;;;5080335;28;19923;-28
2022/03/25 04:18:12;;;;;;;;;;;;;;;;;;5098308;28;19967;-29
2022/03/25 04:20:38;;;;;;;;;;;;;;;;;;5098342;28;19920;-29
2022/03/25 04:23:05;;;;;;;;;;;;;;;;;;5098144;28;19922;-31
2022/03/25 04:25:33;;;;;;;;;;;;;;;;;;5098814;28;20007;-27
2022/03/25 04:28:00;;;;;;;;;;;;;;;;;;5098006;28;19995;-32
2022/03/25 04:30:26;;;;;;;;;;;;;;;;;;5098283;28;20228;-33
2022/03/25 04:32:54;;;;;;;;;;;;;;;;;;5097719;28;19984;-28
2022/03/25 04:35:20;;;;;;;;;;;;;;;;;;5079890;28;20347;-29
2022/03/25 04:37:46;;;;;;;;;;;;;;;;;;5097649;28;20065;-28
2022/03/25 04:40:12;;;;;;;;;;;;;;;;;;5097594;28;19916;-28
2022/03/25 04:42:38;;;;;;;;;;;;;;;;;;5097584;28;20263;-30
2022/03/25 04:45:04;;;;;;;;;;;;;;;;;;5098234;28;20278;-31
2022/03/25 04:47:31;;;;;;;;;;;;;;;;;;5096680;28;19908;-29
2022/03/25 04:49:59;;;;;;;;;;;;;;;;;;5097852;28;19920;-31
2022/03/25 04:52:25;;;;;;;;;;;;;;;;;;5079423;28;19959;-27
2022/03/25 04:54:51;;;;;;;;;;;;;;;;;;5097278;28;19962;-29
2022/03/25 04:57:19;;;;;;;;;;;;;;;;;;5097226;28;20294;-31
2022/03/25 04:59:47;;;;;;;;;;;;;;;;;;5097708;28;20255;-31
2022/03/25 05:02:13;;;;;;;;;;;;;;;;;;5097009;28;19908;-30
2022/03/25 05:04:40;;;;;;;;;;;;;;;;;;5096846;28;19922;-29
2022/03/25 05:07:06;;;;;;;;;;;;;;;;;;5096996;28;20228;-29
2022/03/25 05:09:34;;;;;;;;;;;;;;;;;;5096856;28;19942;-29
2022/03/25 05:12:00;;;;;;;;;;;;;;;;;;5096759;28;19915;-28
2022/03/25 05:14:26;;;;;;;;;;;;;;;;;;5078733;28;20271;-28
2022/03/25 05:16:54;;;;;;;;;;;;;;;;;;5096349;28;20009;-28
2022/03/25 05:19:20;;;;;;;;;;;;;;;;;;5096509;28;19992;-29
2022/03/25 05:21:47;;;;;;;;;;;;;;;;;;5078576;28;19912;-33
2022/03/25 05:24:13;;;;;;;;;;;;;;;;;;5096608;28;19908;-26
2022/03/25 05:26:39;;;;;;;;;;;;;;;;;;5096587;28;19912;-26
2022/03/25 05:29:07;;;;;;;;;;;;;;;;;;5096760;28;19908;-27
2022/03/25 05:31:34;;;;;;;;;;;;;;;;;;5096138;28;20007;-32
2022/03/25 05:34:00;;;;;;;;;;;;;;;;;;5096072;28;19918;-27
2022/03/25 05:36:28;;;;;;;;;;;;;;;;;;5096466;28;19912;-28
2022/03/25 05:38:55;;;;;;;;;;;;;;;;;;5096011;28;19938;-31
2022/03/25 05:41:21;;;;;;;;;;;;;;;;;;5095880;28;20017;-31
2022/03/25 05:43:49;;;;;;;;;;;;;;;;;;5078159;28;20032;-30
2022/03/25 05:46:17;;;;;;;;;;;;;;;;;;5096072;28;19987;-33
2022/03/25 05:48:44;;;;;;;;;;;;;;;;;;5095927;28;19920;-27
2022/03/25 05:51:11;;;;;;;;;;;;;;;;;;5095975;28;19912;-30
2022/03/25 05:53:37;;;;;;;;;;;;;;;;;;5096104;28;19965;-32
2022/03/25 05:56:04;;;;;;;;;;;;;;;;;;5095840;28;20230;-31
2022/03/25 05:58:30;;;;;;;;;;;;;;;;;;5095628;28;20312;-31
2022/03/25 06:00:56;;;;;;;;;;;;;;;;;;5094475;28;20002;-29
2022/03/25 06:03:24;;;;;;;;;;;;;;;;;;5095583;28;19912;-27
2022/03/25 06:05:50;;;;;;;;;;;;;;;;;;5095430;28;19987;-28
2022/03/25 06:08:16;;;;;;;;;;;;;;;;;;5095561;28;19912;-30
2022/03/25 06:10:42;;;;;;;;;;;;;;;;;;5077737;28;20342;-29
2022/03/25 06:13:08;;;;;;;;;;;;;;;;;;5095427;28;20399;-30
2022/03/25 06:15:36;;;;;;;;;;;;;;;;;;5095475;28;19907;-32
2022/03/25 06:18:02;;;;;;;;;;;;;;;;;;5095240;28;19999;-27
2022/03/25 06:20:29;;;;;;;;;;;;;;;;;;5095420;28;19926;-32
2022/03/25 06:22:55;;;;;;;;;;;;;;;;;;5095364;28;19912;-25
2022/03/25 06:25:21;;;;;;;;;;;;;;;;;;5095389;28;19909;-28
2022/03/25 06:27:48;;;;;;;;;;;;;;;;;;5095232;28;20354;-31
2022/03/25 06:30:14;;;;;;;;;;;;;;;;;;5077088;28;19912;-29
2022/03/25 06:32:41;;;;;;;;;;;;;;;;;;5094838;28;19969;-27
2022/03/25 06:35:07;;;;;;;;;;;;;;;;;;5095093;28;20303;-30
2022/03/25 06:37:33;;;;;;;;;;;;;;;;;;5094991;28;19909;-32
2022/03/25 06:40:00;;;;;;;;;;;;;;;;;;5094674;28;19915;-34
2022/03/25 06:42:26;;;;;;;;;;;;;;;;;;5095103;28;20284;-29
2022/03/25 06:44:52;;;;;;;;;;;;;;;;;;5094729;28;19912;-35
2022/03/25 06:47:18;;;;;;;;;;;;;;;;;;5095047;28;19916;-32
2022/03/25 06:49:44;;;;;;;;;;;;;;;;;;5094700;28;20342;-32
2022/03/25 06:52:12;;;;;;;;;;;;;;;;;;5095486;28;19981;-28
2022/03/25 06:54:38;;;;;;;;;;;;;;;;;;5094909;28;20003;-30
2022/03/25 06:57:04;;;;;;;;;;;;;;;;;;5094599;28;19908;-30
2022/03/25 06:59:33;;;;;;;;;;;;;;;;;;5094331;28;19957;-29
2022/03/25 07:01:59;;;;;;;;;;;;;;;;;;5094379;28;19908;-31
2022/03/25 07:04:26;;;;;;;;;;;;;;;;;;5094521;28;20003;-29
2022/03/25 07:06:53;;;;;;;;;;;;;;;;;;5094170;28;20357;-30
2022/03/25 07:09:19;;;;;;;;;;;;;;;;;;5094086;28;20215;-34
2022/03/25 07:11:47;;;;;;;;;;;;;;;;;;5093315;28;20317;-31
2022/03/25 07:14:14;;;;;;;;;;;;;;;;;;5075923;28;19915;-29
2022/03/25 07:16:44;;;;;;;;;;;;;;;;;;5094286;28;19938;-29
2022/03/25 07:19:10;;;;;;;;;;;;;;;;;;5093852;28;19958;-33
2022/03/25 07:21:38;;;;;;;;;;;;;;;;;;5093738;28;20284;-32
2022/03/25 07:24:06;;;;;;;;;;;;;;;;;;5094259;28;19923;-27
2022/03/25 07:26:32;;;;;;;;;;;;;;;;;;5075905;28;19927;-29
2022/03/25 07:29:00;;;;;;;;;;;;;;;;;;5093953;28;19912;-29
2022/03/25 07:31:28;;;;;;;;;;;;;;;;;;5093328;28;20006;-34
2022/03/25 07:33:56;;;;;;;;;;;;;;;;;;5092549;28;20470;-32
2022/03/25 07:36:23;;;;;;;;;;;;;;;;;;5093605;28;19951;-30
2022/03/25 07:38:49;;;;;;;;;;;;;;;;;;5094323;28;19965;-27
2022/03/25 07:41:15;;;;;;;;;;;;;;;;;;5094108;28;19912;-30
2022/03/25 07:43:43;;;;;;;;;;;;;;;;;;5094342;28;19912;-26
2022/03/25 07:46:11;;;;;;;;;;;;;;;;;;5076023;28;20014;-31
2022/03/25 07:48:38;;;;;;;;;;;;;;;;;;5093998;28;19918;-29
2022/03/25 07:51:05;;;;;;;;;;;;;;;;;;5075484;28;20346;-28
2022/03/25 07:53:33;;;;;;;;;;;;;;;;;;5093310;28;20357;-29
2022/03/25 07:55:59;;;;;;;;;;;;;;;;;;5093415;28;19913;-26
2022/03/25 07:58:28;;;;;;;;;;;;;;;;;;5093565;28;20023;-28
2022/03/25 08:00:54;;;;;;;;;;;;;;;;;;5093953;28;19960;-29
2022/03/25 08:03:21;;;;;;;;;;;;;;;;;;5093696;28;19918;-32
2022/03/25 08:05:48;;;;;;;;;;;;;;;;;;5093486;28;19919;-27
2022/03/25 08:08:16;;;;;;;;;;;;;;;;;;5093626;28;19908;-28
2022/03/25 08:10:42;;;;;;;;;;;;;;;;;;5093688;28;19926;-29
2022/03/25 08:13:10;;;;;;;;;;;;;;;;;;5093453;28;19998;-31
2022/03/25 08:15:37;;;;;;;;;;;;;;;;;;5093388;28;19966;-32
2022/03/25 08:18:03;;;;;;;;;;;;;;;;;;5093860;28;19908;-25
2022/03/25 08:20:33;;;;;;;;;;;;;;;;;;5093312;28;19916;-35
2022/03/25 08:23:01;;;;;;;;;;;;;;;;;;5094784;28;19927;-31
2022/03/25 08:28:13;;;;;;;;;;;;;;;;;;5097691;28;19935;-32
2022/03/25 08:30:39;;;;;;;;;;;;;;;;;;5097382;28;19912;-31
2022/03/25 08:33:05;;;;;;;;;;;;;;;;;;5096887;28;20320;-32
2022/03/25 08:35:33;;;;;;;;;;;;;;;;;;5097764;28;19916;-31
2022/03/25 08:37:59;;;;;;;;;;;;;;;;;;5079495;28;19912;-31
2022/03/25 08:40:26;;;;;;;;;;;;;;;;;;5097545;28;19912;-32
2022/03/25 08:42:55;;;;;;;;;;;;;;;;;;5079638;28;20017;-33
2022/03/25 08:45:21;;;;;;;;;;;;;;;;;;5097486;28;19912;-35
2022/03/25 08:47:51;;;;;;;;;;;;;;;;;;5096957;28;19912;-26
2022/03/25 08:50:18;;;;;;;;;;;;;;;;;;5097259;28;19970;-34
2022/03/25 08:55:35;;;;;;;;;;;;;;;;;;5097086;28;19939;-31
2022/03/25 09:28:55;;;;;;;;;;;;;;;;;;4996504;28;19925;-25
2022/03/25 09:31:21;;;;;;;;;;;;;;;;;;4996604;28;20230;-26
2022/03/25 09:33:49;;;;;;;;;;;;;;;;;;4996475;28;19925;-25
2022/03/25 09:36:16;;;;;;;;;;;;;;;;;;4995615;28;20249;-25
2022/03/25 09:38:43;;;;;;;;;;;;;;;;;;4994941;28;19929;-26
2022/03/25 09:41:10;;;;;;;;;;;;;;;;;;4996063;28;19929;-26
2022/03/25 09:43:38;;;;;;;;;;;;;;;;;;4996045;28;20005;-25
2022/03/25 09:46:04;;;;;;;;;;;;;;;;;;4995945;28;19918;-25
2022/03/25 09:48:31;;;;;;;;;;;;;;;;;;4996199;28;19930;-26
2022/03/25 09:50:58;;;;;;;;;;;;;;;;;;4995627;28;20313;-25
2022/03/25 09:53:25;;;;;;;;;;;;;;;;;;4996050;28;19952;-26
2022/03/25 09:55:54;;;;;;;;;;;;;;;;;;4995729;28;19917;-26
2022/03/25 09:58:23;;;;;;;;;;;;;;;;;;4994490;28;19954;-25
2022/03/25 10:00:50;;;;;;;;;;;;;;;;;;4994503;28;19922;-25
2022/03/25 10:03:18;;;;;;;;;;;;;;;;;;4994504;28;20407;-26
2022/03/25 10:05:44;;;;;;;;;;;;;;;;;;4995852;28;19944;-26
2022/03/25 10:08:10;;;;;;;;;;;;;;;;;;4995704;28;20403;-25
2022/03/25 10:10:36;;;;;;;;;;;;;;;;;;4994537;28;20233;-25
2022/03/25 10:13:04;;;;;;;;;;;;;;;;;;4994384;28;19918;-25
2022/03/25 10:15:30;;;;;;;;;;;;;;;;;;4994528;28;19910;-26
2022/03/25 10:17:57;;;;;;;;;;;;;;;;;;4994282;28;19921;-25
2022/03/25 10:20:24;;;;;;;;;;;;;;;;;;4994220;28;20361;-22
2022/03/25 10:22:51;;;;;;;;;;;;;;;;;;4995263;28;19976;-24
2022/03/25 10:25:18;;;;;;;;;;;;;;;;;;4995708;28;19914;-23
2022/03/25 10:27:47;;;;;;;;;;;;;;;;;;4994559;28;19913;-24
2022/03/25 10:30:13;;;;;;;;;;;;;;;;;;4995620;28;19914;-23
2022/03/25 10:32:39;;;;;;;;;;;;;;;;;;4995576;28;19960;-23
2022/03/25 10:35:09;;;;;;;;;;;;;;;;;;4995512;28;19968;-24
2022/03/25 10:37:35;;;;;;;;;;;;;;;;;;4995789;28;20005;-24
2022/03/25 10:40:01;;;;;;;;;;;;;;;;;;4994487;28;19918;-24
2022/03/25 10:42:29;;;;;;;;;;;;;;;;;;4995463;28;19957;-24
2022/03/25 10:44:56;;;;;;;;;;;;;;;;;;4995104;28;19914;-24
2022/03/25 10:47:24;;;;;;;;;;;;;;;;;;4994960;28;19918;-24
2022/03/25 10:49:50;;;;;;;;;;;;;;;;;;4995118;28;20016;-24
2022/03/25 10:52:16;;;;;;;;;;;;;;;;;;4994045;28;19920;-24
2022/03/25 10:54:44;;;;;;;;;;;;;;;;;;4995143;28;20352;-24
2022/03/25 10:57:10;;;;;;;;;;;;;;;;;;4994963;28;20297;-24
2022/03/25 10:59:36;;;;;;;;;;;;;;;;;;4995384;28;20252;-24
2022/03/25 11:02:04;;;;;;;;;;;;;;;;;;4995023;28;19917;-24
2022/03/25 11:04:30;;;;;;;;;;;;;;;;;;4993822;28;19913;-24
2022/03/25 11:06:57;;;;;;;;;;;;;;;;;;4993697;28;19910;-24
2022/03/25 11:09:27;;;;;;;;;;;;;;;;;;4994063;28;19910;-24
2022/03/25 11:11:53;;;;;;;;;;;;;;;;;;4993859;28;20262;-25
2022/03/25 11:14:22;;;;;;;;;;;;;;;;;;5009524;28;19988;-25
2022/03/25 11:16:48;;;;;;;;;;;;;;;;;;5014474;28;19909;-24
2022/03/25 11:19:16;;;;;;;;;;;;;;;;;;5014625;28;20281;-24
2022/03/25 11:21:42;;;;;;;;;;;;;;;;;;5014431;28;20259;-25
2022/03/25 11:24:09;;;;;;;;;;;;;;;;;;5014853;28;19925;-24
2022/03/25 11:26:37;;;;;;;;;;;;;;;;;;5014491;28;19917;-25
2022/03/25 11:29:03;;;;;;;;;;;;;;;;;;5014696;28;19910;-25
2022/03/25 11:31:31;;;;;;;;;;;;;;;;;;4997334;28;19921;-25
2022/03/25 11:34:02;;;;;;;;;;;;;;;;;;5014823;28;19922;-24
2022/03/25 11:36:29;;;;;;;;;;;;;;;;;;5014374;28;19971;-24
2022/03/25 11:38:57;;;;;;;;;;;;;;;;;;5014489;28;19909;-24
2022/03/25 11:41:24;;;;;;;;;;;;;;;;;;4996968;28;20515;-25
2022/03/25 11:43:52;;;;;;;;;;;;;;;;;;4996927;28;19913;-25
2022/03/25 11:46:20;;;;;;;;;;;;;;;;;;5014311;28;19914;-25
2022/03/25 11:48:47;;;;;;;;;;;;;;;;;;5014191;28;19910;-24
2022/03/25 11:51:15;;;;;;;;;;;;;;;;;;5014544;28;19944;-25
2022/03/25 11:53:44;;;;;;;;;;;;;;;;;;5014156;28;19996;-24
2022/03/25 11:56:12;;;;;;;;;;;;;;;;;;5013889;28;19914;-24
2022/03/25 11:58:38;;;;;;;;;;;;;;;;;;4999683;28;19914;-25
2022/03/25 12:01:05;;;;;;;;;;;;;;;;;;5017530;28;19985;-24
2022/03/25 12:03:31;;;;;;;;;;;;;;;;;;5017732;28;19982;-25
2022/03/25 12:05:58;;;;;;;;;;;;;;;;;;4999648;28;19917;-25
2022/03/25 12:08:24;;;;;;;;;;;;;;;;;;5017394;28;19913;-25
2022/03/25 12:10:50;;;;;;;;;;;;;;;;;;5000082;28;19917;-25
2022/03/25 12:13:16;;;;;;;;;;;;;;;;;;5016957;28;19921;-24
2022/03/25 12:15:42;;;;;;;;;;;;;;;;;;5017046;28;19963;-24
2022/03/25 12:18:12;;;;;;;;;;;;;;;;;;4999830;28;19914;-24
2022/03/25 12:23:31;;;;;;;;;;;;;;;;;;5017864;28;20016;-24
2022/03/25 12:25:57;;;;;;;;;;;;;;;;;;5017499;28;19914;-24
2022/03/25 12:28:23;;;;;;;;;;;;;;;;;;5017473;28;20368;-24
2022/03/25 12:44:58;;;;;;;;;;;;;;;;;;5017303;28;20035;-24
2022/03/25 12:53:00;;;;;;;;;;;;;;;;;;5016825;28;19924;-24
2022/03/25 12:55:27;;;;;;;;;;;;;;;;;;5017268;28;19913;-24
2022/03/25 12:57:53;;;;;;;;;;;;;;;;;;5016713;28;20289;-24
2022/03/25 13:00:19;;;;;;;;;;;;;;;;;;5016906;28;20013;-24
2022/03/25 13:02:47;;;;;;;;;;;;;;;;;;5016615;28;20232;-24
2022/03/25 13:05:15;;;;;;;;;;;;;;;;;;5016884;28;20217;-24
2022/03/25 13:07:41;;;;;;;;;;;;;;;;;;5016743;28;19913;-25
2022/03/25 13:10:10;;;;;;;;;;;;;;;;;;4998638;28;19927;-25
2022/03/25 13:12:36;;;;;;;;;;;;;;;;;;4999258;28;20370;-25
2022/03/25 13:15:02;;;;;;;;;;;;;;;;;;5016581;28;20397;-25
2022/03/25 13:17:30;;;;;;;;;;;;;;;;;;5016447;28;20044;-25
2022/03/25 13:19:57;;;;;;;;;;;;;;;;;;5016674;28;19921;-25
2022/03/25 13:25:14;;;;;;;;;;;;;;;;;;5016628;28;19925;-25
2022/03/25 13:27:42;;;;;;;;;;;;;;;;;;4998903;28;19913;-25
2022/03/25 13:30:08;;;;;;;;;;;;;;;;;;5016693;28;19909;-25
2022/03/25 13:32:34;;;;;;;;;;;;;;;;;;5016299;28;19948;-25
2022/03/25 13:35:02;;;;;;;;;;;;;;;;;;5016786;28;19913;-25
2022/03/25 13:37:28;;;;;;;;;;;;;;;;;;5016484;28;19996;-25
2022/03/25 13:39:54;;;;;;;;;;;;;;;;;;5016654;28;20000;-25
2022/03/25 13:42:20;;;;;;;;;;;;;;;;;;4998865;28;20387;-25
2022/03/25 13:44:47;;;;;;;;;;;;;;;;;;4998835;28;20362;-25
2022/03/25 13:47:13;;;;;;;;;;;;;;;;;;5016103;28;19967;-25
2022/03/25 13:49:39;;;;;;;;;;;;;;;;;;5016163;28;20005;-25
2022/03/25 13:52:06;;;;;;;;;;;;;;;;;;5016549;28;19941;-25
2022/03/25 13:54:35;;;;;;;;;;;;;;;;;;5015961;28;19917;-25
2022/03/25 13:57:04;;;;;;;;;;;;;;;;;;5015780;28;19909;-25
2022/03/25 13:59:34;;;;;;;;;;;;;;;;;;5016176;28;19920;-25
2022/03/25 14:02:00;;;;;;;;;;;;;;;;;;5015454;28;20260;-25
2022/03/25 14:04:29;;;;;;;;;;;;;;;;;;5016170;28;19918;-25
2022/03/25 14:06:56;;;;;;;;;;;;;;;;;;5016300;28;19910;-25
2022/03/25 14:09:22;;;;;;;;;;;;;;;;;;5016135;28;19922;-25
2022/03/25 14:11:49;;;;;;;;;;;;;;;;;;5016026;28;19914;-25
2022/03/25 14:14:15;;;;;;;;;;;;;;;;;;5015493;28;20268;-25
2022/03/25 14:16:42;;;;;;;;;;;;;;;;;;5015726;28;19914;-25
2022/03/25 14:19:08;;;;;;;;;;;;;;;;;;4998193;28;19913;-25
2022/03/25 14:21:35;;;;;;;;;;;;;;;;;;5014538;28;20260;-26
2022/03/25 14:24:46;;;;;;;;;;;;;;;;;;5015488;28;19921;-25
2022/03/25 14:26:47;;;;;;;;;;;;;;;;;;5008256;28;19928;-26
2022/03/25 14:29:14;;;;;;;;;;;;;;;;;;4997807;28;19914;-25
2022/03/25 14:31:41;;;;;;;;;;;;;;;;;;5015138;28;19921;-26
2022/03/25 14:34:07;;;;;;;;;;;;;;;;;;5015813;28;20011;-25
2022/03/25 14:36:35;;;;;;;;;;;;;;;;;;5015096;28;19909;-25
2022/03/25 14:39:01;;;;;;;;;;;;;;;;;;5014936;28;19958;-24
2022/03/25 14:41:28;;;;;;;;;;;;;;;;;;5014686;28;20359;-25
2022/03/25 14:43:55;;;;;;;;;;;;;;;;;;5014886;28;19913;-25
2022/03/25 14:46:21;;;;;;;;;;;;;;;;;;5014785;28;19937;-25
2022/03/25 14:48:48;;;;;;;;;;;;;;;;;;5014770;28;19972;-25
2022/03/25 14:51:14;;;;;;;;;;;;;;;;;;4997393;28;20004;-24
2022/03/25 14:53:40;;;;;;;;;;;;;;;;;;5014809;28;19925;-25
2022/03/25 14:56:06;;;;;;;;;;;;;;;;;;4997115;28;19925;-25
2022/03/25 14:58:35;;;;;;;;;;;;;;;;;;4997175;28;20012;-25
2022/03/25 15:01:01;;;;;;;;;;;;;;;;;;5014605;28;19961;-25
2022/03/25 15:03:35;;;;;;;;;;;;;;;;;;5014407;28;20251;-25
2022/03/25 15:06:02;;;;;;;;;;;;;;;;;;5014660;28;19976;-25
2022/03/25 15:08:29;;;;;;;;;;;;;;;;;;5014917;28;19996;-25
2022/03/25 15:10:57;;;;;;;;;;;;;;;;;;4997216;28;19914;-25
2022/03/25 15:13:26;;;;;;;;;;;;;;;;;;5014311;28;20007;-24
2022/03/25 15:15:54;;;;;;;;;;;;;;;;;;5014203;28;19917;-24
2022/03/25 15:18:24;;;;;;;;;;;;;;;;;;4996991;28;19920;-24
2022/03/25 15:23:43;;;;;;;;;;;;;;;;;;5014243;28;20399;-25
2022/03/25 15:26:13;;;;;;;;;;;;;;;;;;5000348;28;20392;-25
2022/03/25 15:28:41;;;;;;;;;;;;;;;;;;5014582;28;19936;-25
2022/03/25 15:36:37;;;;;;;;;;;;;;;;;;5014665;28;19921;-24
2022/03/25 15:39:03;;;;;;;;;;;;;;;;;;4996731;28;20357;-24
2022/03/25 15:41:30;;;;;;;;;;;;;;;;;;5014409;28;19914;-25
2022/03/25 15:43:56;;;;;;;;;;;;;;;;;;5014261;28;19918;-25
2022/03/25 15:46:22;;;;;;;;;;;;;;;;;;5014177;28;20008;-25
2022/03/25 15:48:50;;;;;;;;;;;;;;;;;;5014093;28;19913;-25
2022/03/25 15:51:17;;;;;;;;;;;;;;;;;;5014151;28;19920;-25
2022/03/25 15:53:44;;;;;;;;;;;;;;;;;;5013893;28;19972;-25
2022/03/25 15:56:11;;;;;;;;;;;;;;;;;;5014135;28;19925;-25
2022/03/25 15:58:37;;;;;;;;;;;;;;;;;;4996449;28;19940;-26
2022/03/25 16:01:03;;;;;;;;;;;;;;;;;;4996429;28;19917;-25
2022/03/25 16:03:29;;;;;;;;;;;;;;;;;;5013921;28;20312;-25
2022/03/25 16:05:55;;;;;;;;;;;;;;;;;;5013762;28;19940;-25
2022/03/25 16:08:23;;;;;;;;;;;;;;;;;;5013801;28;19913;-25
2022/03/25 16:10:49;;;;;;;;;;;;;;;;;;4996117;28;19909;-25
2022/03/25 16:13:15;;;;;;;;;;;;;;;;;;5012975;28;20309;-24
2022/03/25 16:15:42;;;;;;;;;;;;;;;;;;5012904;28;20340;-24
2022/03/25 16:18:08;;;;;;;;;;;;;;;;;;5013096;28;20366;-24
2022/03/25 16:20:34;;;;;;;;;;;;;;;;;;5013014;28;20004;-24
2022/03/25 16:23:00;;;;;;;;;;;;;;;;;;4995682;28;20265;-24
2022/03/25 16:25:27;;;;;;;;;;;;;;;;;;5013069;28;19967;-24
2022/03/25 16:27:54;;;;;;;;;;;;;;;;;;5012967;28;20301;-25
2022/03/25 16:30:21;;;;;;;;;;;;;;;;;;5013232;28;19910;-25
2022/03/25 16:32:48;;;;;;;;;;;;;;;;;;5012975;28;20323;-25
2022/03/25 16:35:14;;;;;;;;;;;;;;;;;;4995624;28;19910;-25
2022/03/25 16:37:41;;;;;;;;;;;;;;;;;;5013386;28;19971;-25
2022/03/25 16:40:16;;;;;;;;;;;;;;;;;;4996070;28;20351;-25
2022/03/25 16:42:43;;;;;;;;;;;;;;;;;;5013973;28;20229;-25
2022/03/25 16:45:09;;;;;;;;;;;;;;;;;;5016260;28;20332;-24
2022/03/25 16:47:35;;;;;;;;;;;;;;;;;;5017123;28;19917;-25
2022/03/25 16:50:03;;;;;;;;;;;;;;;;;;5017163;28;19923;-24
2022/03/25 16:52:29;;;;;;;;;;;;;;;;;;5017462;28;20340;-25
2022/03/25 16:54:56;;;;;;;;;;;;;;;;;;5017271;28;19909;-24
2022/03/25 16:57:22;;;;;;;;;;;;;;;;;;5017004;28;19921;-25
2022/03/25 16:59:48;;;;;;;;;;;;;;;;;;5016751;28;20416;-25
2022/03/25 17:02:19;;;;;;;;;;;;;;;;;;4999599;28;20336;-25
2022/03/25 17:04:54;;;;;;;;;;;;;;;;;;4999420;28;19914;-25
2022/03/25 17:07:25;;;;;;;;;;;;;;;;;;5016988;28;19909;-25
2022/03/25 17:09:52;;;;;;;;;;;;;;;;;;4999091;28;19924;-25
2022/03/25 17:12:19;;;;;;;;;;;;;;;;;;5016600;28;19914;-25
2022/03/25 17:14:46;;;;;;;;;;;;;;;;;;4996265;28;19932;-25
2022/03/25 17:17:28;;;;;;;;;;;;;;;;;;4996056;28;19921;-25
2022/03/25 17:19:55;;;;;;;;;;;;;;;;;;4996609;28;20016;-25
2022/03/25 17:22:22;;;;;;;;;;;;;;;;;;4997005;28;19924;-25
2022/03/25 17:24:48;;;;;;;;;;;;;;;;;;4995885;28;19964;-25
2022/03/25 17:29:59;;;;;;;;;;;;;;;;;;4996803;28;19968;-25
2022/03/25 17:32:25;;;;;;;;;;;;;;;;;;4996814;28;19936;-25
2022/03/25 17:34:51;;;;;;;;;;;;;;;;;;4996858;28;19928;-24
2022/03/25 17:37:19;;;;;;;;;;;;;;;;;;4997157;28;19914;-24
2022/03/25 17:39:45;;;;;;;;;;;;;;;;;;4996685;28;20221;-24
2022/03/25 17:42:11;;;;;;;;;;;;;;;;;;4997054;28;20252;-24
2022/03/25 17:44:37;;;;;;;;;;;;;;;;;;4996816;28;19969;-24
2022/03/25 17:47:03;;;;;;;;;;;;;;;;;;4996626;28;19928;-25
2022/03/25 17:49:31;;;;;;;;;;;;;;;;;;4996554;28;20044;-24
2022/03/25 17:51:57;;;;;;;;;;;;;;;;;;4995405;28;19913;-24
2022/03/25 17:54:23;;;;;;;;;;;;;;;;;;4996324;28;20280;-25
2022/03/25 17:56:49;;;;;;;;;;;;;;;;;;4995175;28;19936;-25